sensor_id;sensor_type;location;lat;lon;timestamp;pressure;altitude;pressure_sealevel;temperature;humidity
9899;BME280;4988;49.238;6.698;2023-03-19T00:00:11;98840.59;;;11.25;100.00
9899;BME280;4988;49.238;6.698;2023-03-19T00:02:37;98839.91;;;11.22;100.00
9899;BME280;4988;49.238;6.698;2023-03-19T00:05:03;98841.63;;;11.23;100.00
9899;BME280;4988;49.238;6.698;2023-03-19T00:07:29;98839.47;;;11.14;100.00
9899;BME280;4988;49.238;6.698;2023-03-19T00:09:55;98834.00;;;10.99;100.00
9899;BME280;4988;49.238;6.698;2023-03-19T00:12:20;98834.09;;;10.80;100.00
9899;BME280;4988;49.238;6.698;2023-03-19T00:14:45;98836.97;;;10.59;100.00
9899;BME280;4988;49.238;6.698;2023-03-19T00:17:11;98839.94;;;10.53;100.00
9899;BME280;4988;49.238;6.698;2023-03-19T00:19:36;98842.25;;;10.42;100.00
9899;BME280;4988;49.238;6.698;2023-03-19T00:22:01;98847.84;;;10.36;100.00
9899;BME280;4988;49.238;6.698;2023-03-19T00:24:27;98846.63;;;10.43;100.00
9899;BME280;4988;49.238;6.698;2023-03-19T00:26:53;98842.19;;;10.43;100.00
9899;BME280;4988;49.238;6.698;2023-03-19T00:29:18;98838.25;;;10.51;100.00
9899;BME280;4988;49.238;6.698;2023-03-19T00:31:44;98839.44;;;10.45;99.26
9899;BME280;4988;49.238;6.698;2023-03-19T00:34:09;98845.47;;;10.49;98.37
9899;BME280;4988;49.238;6.698;2023-03-19T00:36:36;98843.44;;;10.54;96.67
9899;BME280;4988;49.238;6.698;2023-03-19T00:39:02;98845.69;;;10.61;95.42
9899;BME280;4988;49.238;6.698;2023-03-19T00:41:27;98851.19;;;10.58;96.02
9899;BME280;4988;49.238;6.698;2023-03-19T00:43:56;98847.44;;;10.62;96.56
9899;BME280;4988;49.238;6.698;2023-03-19T00:46:23;98852.03;;;10.59;95.30
9899;BME280;4988;49.238;6.698;2023-03-19T00:48:49;98854.78;;;10.57;95.66
9899;BME280;4988;49.238;6.698;2023-03-19T00:51:18;98851.28;;;10.57;96.44
9899;BME280;4988;49.238;6.698;2023-03-19T00:53:43;98848.22;;;10.65;94.57
9899;BME280;4988;49.238;6.698;2023-03-19T00:56:11;98856.22;;;10.47;95.02
9899;BME280;4988;49.238;6.698;2023-03-19T00:58:36;98852.66;;;10.46;93.57
9899;BME280;4988;49.238;6.698;2023-03-19T01:01:09;98847.38;;;10.27;94.15
9899;BME280;4988;49.238;6.698;2023-03-19T01:03:35;98855.59;;;10.23;94.63
9899;BME280;4988;49.238;6.698;2023-03-19T01:06:01;98854.09;;;10.17;94.05
9899;BME280;4988;49.238;6.698;2023-03-19T01:08:26;98852.34;;;10.16;94.33
9899;BME280;4988;49.238;6.698;2023-03-19T01:10:52;98857.22;;;10.08;94.83
9899;BME280;4988;49.238;6.698;2023-03-19T01:13:17;98856.41;;;10.06;94.55
9899;BME280;4988;49.238;6.698;2023-03-19T01:15:43;98858.44;;;10.01;94.16
9899;BME280;4988;49.238;6.698;2023-03-19T01:18:09;98856.63;;;10.01;94.34
9899;BME280;4988;49.238;6.698;2023-03-19T01:20:37;98858.09;;;9.89;94.47
9899;BME280;4988;49.238;6.698;2023-03-19T01:23:03;98861.19;;;9.80;95.59
9899;BME280;4988;49.238;6.698;2023-03-19T01:25:29;98852.78;;;9.70;95.35
9899;BME280;4988;49.238;6.698;2023-03-19T01:27:55;98858.81;;;9.74;94.65
9899;BME280;4988;49.238;6.698;2023-03-19T01:30:21;98861.84;;;9.66;95.40
9899;BME280;4988;49.238;6.698;2023-03-19T01:32:46;98865.00;;;9.55;95.63
9899;BME280;4988;49.238;6.698;2023-03-19T01:35:11;98862.34;;;9.55;95.64
9899;BME280;4988;49.238;6.698;2023-03-19T01:37:37;98863.13;;;9.57;95.00
9899;BME280;4988;49.238;6.698;2023-03-19T01:40:06;98868.75;;;9.51;95.33
9899;BME280;4988;49.238;6.698;2023-03-19T01:42:33;98872.72;;;9.41;96.42
9899;BME280;4988;49.238;6.698;2023-03-19T01:44:58;98867.13;;;9.47;95.37
9899;BME280;4988;49.238;6.698;2023-03-19T01:49:54;98865.69;;;9.40;95.97
9899;BME280;4988;49.238;6.698;2023-03-19T01:52:21;98865.69;;;9.40;95.03
9899;BME280;4988;49.238;6.698;2023-03-19T01:54:47;98871.78;;;9.23;96.48
9899;BME280;4988;49.238;6.698;2023-03-19T01:57:15;98868.69;;;9.13;97.76
9899;BME280;4988;49.238;6.698;2023-03-19T01:59:43;98862.69;;;9.08;98.07
9899;BME280;4988;49.238;6.698;2023-03-19T02:04:45;98869.81;;;9.07;99.05
9899;BME280;4988;49.238;6.698;2023-03-19T02:07:12;98867.34;;;9.02;97.89
9899;BME280;4988;49.238;6.698;2023-03-19T02:09:40;98868.50;;;8.97;98.00
9899;BME280;4988;49.238;6.698;2023-03-19T02:12:06;98879.59;;;8.86;97.76
9899;BME280;4988;49.238;6.698;2023-03-19T02:14:32;98870.50;;;8.71;98.16
9899;BME280;4988;49.238;6.698;2023-03-19T02:16:58;98870.03;;;8.61;99.59
9899;BME280;4988;49.238;6.698;2023-03-19T02:19:32;98857.75;;;8.59;100.00
9899;BME280;4988;49.238;6.698;2023-03-19T02:21:59;98863.19;;;8.56;100.00
9899;BME280;4988;49.238;6.698;2023-03-19T02:24:35;98865.63;;;8.60;100.00
9899;BME280;4988;49.238;6.698;2023-03-19T02:27:04;98868.28;;;8.60;100.00
9899;BME280;4988;49.238;6.698;2023-03-19T02:29:32;98875.06;;;8.67;99.81
9899;BME280;4988;49.238;6.698;2023-03-19T02:31:57;98867.22;;;8.64;100.00
9899;BME280;4988;49.238;6.698;2023-03-19T02:36:51;98867.28;;;8.63;99.91
9899;BME280;4988;49.238;6.698;2023-03-19T02:39:27;98872.13;;;8.53;100.00
9899;BME280;4988;49.238;6.698;2023-03-19T02:41:55;98869.16;;;8.38;99.75
9899;BME280;4988;49.238;6.698;2023-03-19T02:44:22;98889.22;;;8.24;100.00
9899;BME280;4988;49.238;6.698;2023-03-19T02:46:47;98886.69;;;7.98;100.00
9899;BME280;4988;49.238;6.698;2023-03-19T02:49:13;98887.94;;;7.66;100.00
9899;BME280;4988;49.238;6.698;2023-03-19T02:51:39;98891.13;;;7.52;100.00
9899;BME280;4988;49.238;6.698;2023-03-19T02:54:06;98892.94;;;7.26;100.00
9899;BME280;4988;49.238;6.698;2023-03-19T02:56:31;98888.69;;;7.22;100.00
9899;BME280;4988;49.238;6.698;2023-03-19T02:58:56;98891.13;;;7.28;100.00
9899;BME280;4988;49.238;6.698;2023-03-19T03:01:22;98889.75;;;7.42;100.00
9899;BME280;4988;49.238;6.698;2023-03-19T03:03:47;98897.28;;;7.52;100.00
9899;BME280;4988;49.238;6.698;2023-03-19T03:06:12;98890.38;;;7.48;100.00
9899;BME280;4988;49.238;6.698;2023-03-19T03:08:38;98896.75;;;7.43;100.00
9899;BME280;4988;49.238;6.698;2023-03-19T03:11:04;98895.31;;;7.34;100.00
9899;BME280;4988;49.238;6.698;2023-03-19T03:13:29;98897.97;;;7.34;100.00
9899;BME280;4988;49.238;6.698;2023-03-19T03:15:55;98895.22;;;7.37;100.00
9899;BME280;4988;49.238;6.698;2023-03-19T03:18:21;98894.97;;;7.43;100.00
9899;BME280;4988;49.238;6.698;2023-03-19T03:20:46;98898.03;;;7.56;100.00
9899;BME280;4988;49.238;6.698;2023-03-19T03:23:12;98896.25;;;7.56;100.00
9899;BME280;4988;49.238;6.698;2023-03-19T03:25:37;98894.81;;;7.48;100.00
9899;BME280;4988;49.238;6.698;2023-03-19T03:28:02;98903.63;;;7.23;100.00
9899;BME280;4988;49.238;6.698;2023-03-19T03:30:28;98896.28;;;7.07;100.00
9899;BME280;4988;49.238;6.698;2023-03-19T03:32:53;98908.84;;;7.01;100.00
9899;BME280;4988;49.238;6.698;2023-03-19T03:35:19;98902.69;;;7.00;100.00
9899;BME280;4988;49.238;6.698;2023-03-19T03:37:48;98903.28;;;7.08;100.00
9899;BME280;4988;49.238;6.698;2023-03-19T03:40:13;98905.59;;;7.18;100.00
9899;BME280;4988;49.238;6.698;2023-03-19T03:42:40;98901.13;;;7.20;100.00
9899;BME280;4988;49.238;6.698;2023-03-19T03:45:06;98900.97;;;7.24;100.00
9899;BME280;4988;49.238;6.698;2023-03-19T03:47:32;98909.59;;;7.30;100.00
9899;BME280;4988;49.238;6.698;2023-03-19T03:49:57;98906.03;;;7.31;100.00
9899;BME280;4988;49.238;6.698;2023-03-19T03:52:23;98907.47;;;7.39;100.00
9899;BME280;4988;49.238;6.698;2023-03-19T03:54:48;98910.19;;;7.38;100.00
9899;BME280;4988;49.238;6.698;2023-03-19T03:57:13;98911.13;;;7.35;100.00
9899;BME280;4988;49.238;6.698;2023-03-19T03:59:40;98920.59;;;7.43;100.00
9899;BME280;4988;49.238;6.698;2023-03-19T04:02:05;98918.75;;;7.45;100.00
9899;BME280;4988;49.238;6.698;2023-03-19T04:04:31;98924.97;;;7.44;100.00
9899;BME280;4988;49.238;6.698;2023-03-19T04:06:57;98920.19;;;7.53;100.00
9899;BME280;4988;49.238;6.698;2023-03-19T04:09:23;98917.25;;;7.61;100.00
9899;BME280;4988;49.238;6.698;2023-03-19T04:11:48;98916.00;;;7.71;100.00
9899;BME280;4988;49.238;6.698;2023-03-19T04:14:14;98908.63;;;7.80;100.00
9899;BME280;4988;49.238;6.698;2023-03-19T04:16:39;98906.66;;;7.85;100.00
9899;BME280;4988;49.238;6.698;2023-03-19T04:19:04;98910.16;;;7.85;100.00
9899;BME280;4988;49.238;6.698;2023-03-19T04:21:31;98910.91;;;7.89;100.00
9899;BME280;4988;49.238;6.698;2023-03-19T04:23:57;98906.53;;;7.88;100.00
9899;BME280;4988;49.238;6.698;2023-03-19T04:26:23;98913.56;;;7.89;100.00
9899;BME280;4988;49.238;6.698;2023-03-19T04:28:48;98910.56;;;7.98;100.00
9899;BME280;4988;49.238;6.698;2023-03-19T04:31:13;98911.09;;;8.07;100.00
9899;BME280;4988;49.238;6.698;2023-03-19T04:33:39;98914.88;;;8.01;100.00
9899;BME280;4988;49.238;6.698;2023-03-19T04:36:05;98914.28;;;7.93;100.00
9899;BME280;4988;49.238;6.698;2023-03-19T04:38:31;98914.97;;;7.98;100.00
9899;BME280;4988;49.238;6.698;2023-03-19T04:40:57;98917.44;;;8.02;100.00
9899;BME280;4988;49.238;6.698;2023-03-19T04:43:22;98910.41;;;8.01;100.00
9899;BME280;4988;49.238;6.698;2023-03-19T04:45:48;98912.25;;;7.99;100.00
9899;BME280;4988;49.238;6.698;2023-03-19T04:48:14;98909.56;;;8.01;100.00
9899;BME280;4988;49.238;6.698;2023-03-19T04:50:40;98907.69;;;8.03;100.00
9899;BME280;4988;49.238;6.698;2023-03-19T04:53:05;98910.19;;;8.08;100.00
9899;BME280;4988;49.238;6.698;2023-03-19T04:55:32;98909.16;;;8.12;100.00
9899;BME280;4988;49.238;6.698;2023-03-19T04:57:58;98906.59;;;8.09;100.00
9899;BME280;4988;49.238;6.698;2023-03-19T05:00:23;98919.34;;;7.99;100.00
9899;BME280;4988;49.238;6.698;2023-03-19T05:02:49;98908.69;;;8.00;100.00
9899;BME280;4988;49.238;6.698;2023-03-19T05:05:14;98913.88;;;8.03;100.00
9899;BME280;4988;49.238;6.698;2023-03-19T05:07:40;98917.28;;;7.83;100.00
9899;BME280;4988;49.238;6.698;2023-03-19T05:10:07;98915.19;;;7.69;100.00
9899;BME280;4988;49.238;6.698;2023-03-19T05:12:33;98908.84;;;7.73;100.00
9899;BME280;4988;49.238;6.698;2023-03-19T05:14:58;98918.41;;;7.78;100.00
9899;BME280;4988;49.238;6.698;2023-03-19T05:17:24;98918.56;;;7.73;100.00
9899;BME280;4988;49.238;6.698;2023-03-19T05:19:49;98924.19;;;7.65;100.00
9899;BME280;4988;49.238;6.698;2023-03-19T05:22:15;98929.56;;;7.62;100.00
9899;BME280;4988;49.238;6.698;2023-03-19T05:24:41;98924.50;;;7.56;100.00
9899;BME280;4988;49.238;6.698;2023-03-19T05:27:06;98923.28;;;7.65;100.00
9899;BME280;4988;49.238;6.698;2023-03-19T05:29:31;98933.41;;;7.77;100.00
9899;BME280;4988;49.238;6.698;2023-03-19T05:31:57;98925.22;;;7.85;100.00
9899;BME280;4988;49.238;6.698;2023-03-19T05:34:23;98933.84;;;7.90;100.00
9899;BME280;4988;49.238;6.698;2023-03-19T05:36:49;98941.78;;;7.90;100.00
9899;BME280;4988;49.238;6.698;2023-03-19T05:39:15;98939.25;;;7.87;100.00
9899;BME280;4988;49.238;6.698;2023-03-19T05:41:41;98940.34;;;7.81;100.00
9899;BME280;4988;49.238;6.698;2023-03-19T05:44:06;98948.25;;;7.83;100.00
9899;BME280;4988;49.238;6.698;2023-03-19T05:46:32;98942.31;;;7.76;100.00
9899;BME280;4988;49.238;6.698;2023-03-19T05:48:57;98948.25;;;7.83;100.00
9899;BME280;4988;49.238;6.698;2023-03-19T05:51:22;98950.56;;;7.92;100.00
9899;BME280;4988;49.238;6.698;2023-03-19T05:53:47;98943.91;;;8.04;100.00
9899;BME280;4988;49.238;6.698;2023-03-19T05:56:13;98953.47;;;8.08;100.00
9899;BME280;4988;49.238;6.698;2023-03-19T05:58:38;98950.63;;;8.13;100.00
9899;BME280;4988;49.238;6.698;2023-03-19T06:01:03;98947.69;;;8.20;100.00
9899;BME280;4988;49.238;6.698;2023-03-19T06:03:29;98959.97;;;8.23;100.00
9899;BME280;4988;49.238;6.698;2023-03-19T06:05:54;98956.41;;;8.23;100.00
9899;BME280;4988;49.238;6.698;2023-03-19T06:08:20;98954.50;;;8.26;100.00
9899;BME280;4988;49.238;6.698;2023-03-19T06:10:45;98957.00;;;8.31;100.00
9899;BME280;4988;49.238;6.698;2023-03-19T06:13:11;98955.94;;;8.35;100.00
9899;BME280;4988;49.238;6.698;2023-03-19T06:15:37;98958.34;;;8.41;100.00
9899;BME280;4988;49.238;6.698;2023-03-19T06:18:02;98959.22;;;8.42;100.00
9899;BME280;4988;49.238;6.698;2023-03-19T06:20:28;98968.78;;;8.46;100.00
9899;BME280;4988;49.238;6.698;2023-03-19T06:22:54;98955.38;;;8.50;100.00
9899;BME280;4988;49.238;6.698;2023-03-19T06:25:19;98957.84;;;8.55;100.00
9899;BME280;4988;49.238;6.698;2023-03-19T06:27:45;98958.50;;;8.60;100.00
9899;BME280;4988;49.238;6.698;2023-03-19T06:30:11;98958.25;;;8.66;100.00
9899;BME280;4988;49.238;6.698;2023-03-19T06:32:37;98956.34;;;8.70;100.00
9899;BME280;4988;49.238;6.698;2023-03-19T06:35:02;98966.22;;;8.66;100.00
9899;BME280;4988;49.238;6.698;2023-03-19T06:37:28;98970.59;;;8.67;100.00
9899;BME280;4988;49.238;6.698;2023-03-19T06:39:54;98964.06;;;8.54;100.00
9899;BME280;4988;49.238;6.698;2023-03-19T06:42:20;98962.31;;;8.53;100.00
9899;BME280;4988;49.238;6.698;2023-03-19T06:44:46;98964.06;;;8.54;100.00
9899;BME280;4988;49.238;6.698;2023-03-19T06:47:11;98962.56;;;8.47;100.00
9899;BME280;4988;49.238;6.698;2023-03-19T06:49:37;98963.13;;;8.55;100.00
9899;BME280;4988;49.238;6.698;2023-03-19T06:52:02;98967.97;;;8.66;100.00
9899;BME280;4988;49.238;6.698;2023-03-19T06:54:28;98970.88;;;8.60;100.00
9899;BME280;4988;49.238;6.698;2023-03-19T06:56:53;98976.44;;;8.53;100.00
9899;BME280;4988;49.238;6.698;2023-03-19T06:59:18;98977.91;;;8.38;100.00
9899;BME280;4988;49.238;6.698;2023-03-19T07:01:44;98969.41;;;8.30;100.00
9899;BME280;4988;49.238;6.698;2023-03-19T07:04:10;98969.16;;;8.36;100.00
9899;BME280;4988;49.238;6.698;2023-03-19T07:06:36;98972.09;;;8.52;100.00
9899;BME280;4988;49.238;6.698;2023-03-19T07:09:01;98970.63;;;8.66;100.00
9899;BME280;4988;49.238;6.698;2023-03-19T07:11:27;98969.28;;;8.78;100.00
9899;BME280;4988;49.238;6.698;2023-03-19T07:13:52;98973.28;;;8.88;100.00
9899;BME280;4988;49.238;6.698;2023-03-19T07:16:17;98967.19;;;9.07;100.00
9899;BME280;4988;49.238;6.698;2023-03-19T07:18:43;98963.56;;;9.09;100.00
9899;BME280;4988;49.238;6.698;2023-03-19T07:21:08;98964.94;;;9.18;100.00
9899;BME280;4988;49.238;6.698;2023-03-19T07:23:33;98977.06;;;9.24;100.00
9899;BME280;4988;49.238;6.698;2023-03-19T07:25:59;98976.03;;;9.28;100.00
9899;BME280;4988;49.238;6.698;2023-03-19T07:28:25;98979.47;;;9.30;100.00
9899;BME280;4988;49.238;6.698;2023-03-19T07:30:51;98972.94;;;9.37;100.00
9899;BME280;4988;49.238;6.698;2023-03-19T07:33:17;98977.00;;;9.46;100.00
9899;BME280;4988;49.238;6.698;2023-03-19T07:35:43;98979.38;;;9.52;99.88
9899;BME280;4988;49.238;6.698;2023-03-19T07:38:08;98976.53;;;9.57;99.81
9899;BME280;4988;49.238;6.698;2023-03-19T07:40:33;98977.91;;;9.65;99.39
9899;BME280;4988;49.238;6.698;2023-03-19T07:42:59;98982.81;;;9.75;99.12
9899;BME280;4988;49.238;6.698;2023-03-19T07:45:24;98991.66;;;9.75;98.61
9899;BME280;4988;49.238;6.698;2023-03-19T07:47:49;98991.53;;;9.78;98.31
9899;BME280;4988;49.238;6.698;2023-03-19T07:50:16;98993.16;;;9.81;97.44
9899;BME280;4988;49.238;6.698;2023-03-19T07:52:44;98997.28;;;9.88;97.25
9899;BME280;4988;49.238;6.698;2023-03-19T07:55:10;98991.16;;;9.86;97.24
9899;BME280;4988;49.238;6.698;2023-03-19T07:57:35;98988.31;;;9.91;97.27
9899;BME280;4988;49.238;6.698;2023-03-19T08:00:01;98993.81;;;9.86;97.34
9899;BME280;4988;49.238;6.698;2023-03-19T08:02:26;98994.81;;;9.84;97.84
9899;BME280;4988;49.238;6.698;2023-03-19T08:04:51;99000.06;;;9.85;97.27
9899;BME280;4988;49.238;6.698;2023-03-19T08:07:17;99003.66;;;9.84;97.55
9899;BME280;4988;49.238;6.698;2023-03-19T08:09:42;98999.50;;;9.78;97.81
9899;BME280;4988;49.238;6.698;2023-03-19T08:12:07;99001.00;;;9.84;97.25
9899;BME280;4988;49.238;6.698;2023-03-19T08:14:33;98998.06;;;9.90;96.49
9899;BME280;4988;49.238;6.698;2023-03-19T08:16:59;98997.06;;;9.93;96.44
9899;BME280;4988;49.238;6.698;2023-03-19T08:19:24;99001.16;;;10.00;95.80
9899;BME280;4988;49.238;6.698;2023-03-19T08:21:50;99011.38;;;10.09;94.98
9899;BME280;4988;49.238;6.698;2023-03-19T08:24:16;99000.94;;;10.05;95.03
9899;BME280;4988;49.238;6.698;2023-03-19T08:26:42;99000.22;;;10.01;95.62
9899;BME280;4988;49.238;6.698;2023-03-19T08:29:09;99003.59;;;10.05;95.06
9899;BME280;4988;49.238;6.698;2023-03-19T08:31:35;99003.09;;;9.96;95.37
9899;BME280;4988;49.238;6.698;2023-03-19T08:34:00;99005.50;;;10.03;95.23
9899;BME280;4988;49.238;6.698;2023-03-19T08:36:29;99016.78;;;10.08;96.38
9899;BME280;4988;49.238;6.698;2023-03-19T08:38:54;99014.31;;;10.22;98.55
9899;BME280;4988;49.238;6.698;2023-03-19T08:41:21;99006.50;;;10.19;99.70
9899;BME280;4988;49.238;6.698;2023-03-19T08:43:46;99009.97;;;10.21;100.00
9899;BME280;4988;49.238;6.698;2023-03-19T08:46:12;99008.72;;;10.09;100.00
9899;BME280;4988;49.238;6.698;2023-03-19T08:48:37;99011.59;;;10.05;100.00
9899;BME280;4988;49.238;6.698;2023-03-19T08:51:03;99015.34;;;10.01;100.00
9899;BME280;4988;49.238;6.698;2023-03-19T08:53:30;99024.13;;;10.03;100.00
9899;BME280;4988;49.238;6.698;2023-03-19T08:55:57;99019.00;;;9.98;100.00
9899;BME280;4988;49.238;6.698;2023-03-19T08:58:23;99028.53;;;9.83;100.00
9899;BME280;4988;49.238;6.698;2023-03-19T09:00:49;99034.53;;;9.68;100.00
9899;BME280;4988;49.238;6.698;2023-03-19T09:03:15;99040.50;;;9.52;100.00
9899;BME280;4988;49.238;6.698;2023-03-19T09:05:41;99039.38;;;9.58;100.00
9899;BME280;4988;49.238;6.698;2023-03-19T09:08:07;99035.88;;;9.57;100.00
9899;BME280;4988;49.238;6.698;2023-03-19T09:10:33;99038.00;;;9.70;100.00
9899;BME280;4988;49.238;6.698;2023-03-19T09:12:58;99037.75;;;9.74;100.00
9899;BME280;4988;49.238;6.698;2023-03-19T09:15:24;99041.16;;;9.78;100.00
9899;BME280;4988;49.238;6.698;2023-03-19T09:17:49;99032.44;;;9.74;100.00
9899;BME280;4988;49.238;6.698;2023-03-19T09:20:15;99045.41;;;9.82;100.00
9899;BME280;4988;49.238;6.698;2023-03-19T09:22:40;99043.25;;;9.90;100.00
9899;BME280;4988;49.238;6.698;2023-03-19T09:25:06;99052.91;;;9.93;100.00
9899;BME280;4988;49.238;6.698;2023-03-19T09:27:32;99052.97;;;9.91;100.00
9899;BME280;4988;49.238;6.698;2023-03-19T09:29:57;99053.88;;;9.90;100.00
9899;BME280;4988;49.238;6.698;2023-03-19T09:32:22;99055.13;;;9.83;100.00
9899;BME280;4988;49.238;6.698;2023-03-19T09:34:48;99049.81;;;9.83;100.00
9899;BME280;4988;49.238;6.698;2023-03-19T09:37:13;99060.56;;;9.80;100.00
9899;BME280;4988;49.238;6.698;2023-03-19T09:39:39;99063.59;;;9.91;100.00
9899;BME280;4988;49.238;6.698;2023-03-19T09:42:39;99056.16;;;10.00;100.00
9899;BME280;4988;49.238;6.698;2023-03-19T09:44:56;99062.19;;;10.03;100.00
9899;BME280;4988;49.238;6.698;2023-03-19T09:47:30;99058.69;;;10.22;100.00
9899;BME280;4988;49.238;6.698;2023-03-19T09:49:59;99060.91;;;10.12;100.00
9899;BME280;4988;49.238;6.698;2023-03-19T09:52:41;99065.94;;;10.18;100.00
9899;BME280;4988;49.238;6.698;2023-03-19T09:57:42;99062.25;;;10.41;100.00
9899;BME280;4988;49.238;6.698;2023-03-19T10:02:43;99059.44;;;10.64;100.00
9899;BME280;4988;49.238;6.698;2023-03-19T10:05:17;99072.59;;;10.67;100.00
9899;BME280;4988;49.238;6.698;2023-03-19T10:07:58;99066.84;;;10.76;100.00
9899;BME280;4988;49.238;6.698;2023-03-19T10:13:25;99069.00;;;10.68;100.00
9899;BME280;4988;49.238;6.698;2023-03-19T10:15:54;99063.38;;;10.74;100.00
9899;BME280;4988;49.238;6.698;2023-03-19T10:18:24;99066.94;;;10.55;100.00
9899;BME280;4988;49.238;6.698;2023-03-19T10:21:10;99071.31;;;10.56;100.00
9899;BME280;4988;49.238;6.698;2023-03-19T10:23:45;99079.47;;;10.53;100.00
9899;BME280;4988;49.238;6.698;2023-03-19T10:26:15;99074.31;;;10.68;100.00
9899;BME280;4988;49.238;6.698;2023-03-19T10:28:42;99076.06;;;10.69;100.00
9899;BME280;4988;49.238;6.698;2023-03-19T10:34:32;99074.50;;;10.65;100.00
9899;BME280;4988;49.238;6.698;2023-03-19T10:37:13;99071.38;;;10.74;100.00
9899;BME280;4988;49.238;6.698;2023-03-19T10:39:41;99072.88;;;10.60;100.00
9899;BME280;4988;49.238;6.698;2023-03-19T10:47:58;99080.59;;;10.67;100.00
9899;BME280;4988;49.238;6.698;2023-03-19T10:55:45;99085.72;;;10.52;100.00
9899;BME280;4988;49.238;6.698;2023-03-19T10:58:17;99087.81;;;10.65;100.00
9899;BME280;4988;49.238;6.698;2023-03-19T11:00:47;99082.41;;;10.66;100.00
9899;BME280;4988;49.238;6.698;2023-03-19T11:06:03;99090.16;;;10.52;100.00
9899;BME280;4988;49.238;6.698;2023-03-19T11:08:34;99085.84;;;10.49;100.00
9899;BME280;4988;49.238;6.698;2023-03-19T11:11:00;99082.59;;;10.61;100.00
9899;BME280;4988;49.238;6.698;2023-03-19T11:13:25;99087.00;;;10.62;100.00
9899;BME280;4988;49.238;6.698;2023-03-19T11:15:52;99081.59;;;10.64;100.00
9899;BME280;4988;49.238;6.698;2023-03-19T11:18:23;99082.19;;;10.71;100.00
9899;BME280;4988;49.238;6.698;2023-03-19T11:20:54;99072.31;;;10.73;100.00
9899;BME280;4988;49.238;6.698;2023-03-19T11:23:21;99071.31;;;10.75;100.00
9899;BME280;4988;49.238;6.698;2023-03-19T11:25:49;99060.72;;;10.93;100.00
9899;BME280;4988;49.238;6.698;2023-03-19T11:28:20;99074.31;;;10.87;100.00
9899;BME280;4988;49.238;6.698;2023-03-19T11:31:11;99063.88;;;10.82;100.00
9899;BME280;4988;49.238;6.698;2023-03-19T11:34:05;99066.56;;;10.82;100.00
9899;BME280;4988;49.238;6.698;2023-03-19T11:40:00;99065.41;;;10.88;100.00
9899;BME280;4988;49.238;6.698;2023-03-19T11:48:03;99065.94;;;10.94;100.00
9899;BME280;4988;49.238;6.698;2023-03-19T11:50:59;99057.97;;;10.94;100.00
9899;BME280;4988;49.238;6.698;2023-03-19T11:53:27;99053.44;;;10.97;100.00
9899;BME280;4988;49.238;6.698;2023-03-19T11:56:13;99052.75;;;11.10;100.00
9899;BME280;4988;49.238;6.698;2023-03-19T12:07:09;99042.19;;;11.62;100.00
9899;BME280;4988;49.238;6.698;2023-03-19T12:09:41;99043.50;;;11.70;100.00
9899;BME280;4988;49.238;6.698;2023-03-19T12:20:41;99037.53;;;12.16;100.00
9899;BME280;4988;49.238;6.698;2023-03-19T12:23:23;99024.72;;;12.39;100.00
9899;BME280;4988;49.238;6.698;2023-03-19T12:26:01;99030.16;;;12.37;100.00
9899;BME280;4988;49.238;6.698;2023-03-19T12:28:49;99029.56;;;12.48;100.00
9899;BME280;4988;49.238;6.698;2023-03-19T12:31:30;99025.34;;;12.60;100.00
9899;BME280;4988;49.238;6.698;2023-03-19T12:36:37;99025.25;;;12.30;100.00
9899;BME280;4988;49.238;6.698;2023-03-19T12:39:14;99020.06;;;12.27;100.00
9899;BME280;4988;49.238;6.698;2023-03-19T12:41:43;99031.88;;;12.22;100.00
9899;BME280;4988;49.238;6.698;2023-03-19T12:44:25;99025.75;;;12.20;100.00
9899;BME280;4988;49.238;6.698;2023-03-19T12:46:57;99033.31;;;12.12;100.00
9899;BME280;4988;49.238;6.698;2023-03-19T12:49:36;99044.16;;;11.91;100.00
9899;BME280;4988;49.238;6.698;2023-03-19T12:52:30;99053.94;;;11.40;100.00
9899;BME280;4988;49.238;6.698;2023-03-19T12:55:08;99061.03;;;11.04;100.00
9899;BME280;4988;49.238;6.698;2023-03-19T13:00:31;99059.28;;;10.67;100.00
9899;BME280;4988;49.238;6.698;2023-03-19T13:06:00;99050.75;;;10.60;100.00
9899;BME280;4988;49.238;6.698;2023-03-19T13:08:36;99059.09;;;10.52;100.00
9899;BME280;4988;49.238;6.698;2023-03-19T13:11:09;99048.38;;;10.54;100.00
9899;BME280;4988;49.238;6.698;2023-03-19T13:13:41;99043.78;;;10.57;100.00
9899;BME280;4988;49.238;6.698;2023-03-19T13:19:09;99051.59;;;10.60;100.00
9899;BME280;4988;49.238;6.698;2023-03-19T13:21:38;99046.25;;;10.80;100.00
9899;BME280;4988;49.238;6.698;2023-03-19T13:24:16;99050.13;;;10.91;100.00
9899;BME280;4988;49.238;6.698;2023-03-19T13:26:44;99052.00;;;10.89;100.00
9899;BME280;4988;49.238;6.698;2023-03-19T13:29:18;99056.00;;;10.98;100.00
9899;BME280;4988;49.238;6.698;2023-03-19T13:31:45;99051.84;;;10.92;100.00
9899;BME280;4988;49.238;6.698;2023-03-19T13:34:27;99051.47;;;11.00;100.00
9899;BME280;4988;49.238;6.698;2023-03-19T13:37:01;99053.38;;;11.16;100.00
9899;BME280;4988;49.238;6.698;2023-03-19T13:39:31;99053.00;;;11.23;100.00
9899;BME280;4988;49.238;6.698;2023-03-19T14:03:18;99041.72;;;11.53;100.00
9899;BME280;4988;49.238;6.698;2023-03-19T14:05:46;99035.59;;;11.51;100.00
9899;BME280;4988;49.238;6.698;2023-03-19T14:08:32;99036.91;;;11.60;100.00
9899;BME280;4988;49.238;6.698;2023-03-19T14:10:59;99031.91;;;11.54;100.00
9899;BME280;4988;49.238;6.698;2023-03-19T14:13:32;99031.91;;;11.54;100.00
9899;BME280;4988;49.238;6.698;2023-03-19T14:16:06;99028.06;;;11.59;100.00
9899;BME280;4988;49.238;6.698;2023-03-19T14:18:37;99029.78;;;11.61;100.00
9899;BME280;4988;49.238;6.698;2023-03-19T14:21:05;99028.22;;;11.74;100.00
9899;BME280;4988;49.238;6.698;2023-03-19T14:23:32;99029.66;;;11.80;100.00
9899;BME280;4988;49.238;6.698;2023-03-19T14:26:20;99021.25;;;11.87;100.00
9899;BME280;4988;49.238;6.698;2023-03-19T14:29:05;99020.16;;;11.91;100.00
9899;BME280;4988;49.238;6.698;2023-03-19T14:34:21;99011.78;;;11.99;100.00
9899;BME280;4988;49.238;6.698;2023-03-19T14:39:25;99015.41;;;12.14;100.00
9899;BME280;4988;49.238;6.698;2023-03-19T14:42:06;99005.28;;;12.21;100.00
9899;BME280;4988;49.238;6.698;2023-03-19T14:44:58;99001.69;;;12.38;100.00
9899;BME280;4988;49.238;6.698;2023-03-19T14:47:51;99005.88;;;12.42;100.00
9899;BME280;4988;49.238;6.698;2023-03-19T14:53:31;99001.22;;;12.62;100.00
9899;BME280;4988;49.238;6.698;2023-03-19T14:56:15;99002.75;;;12.66;100.00
9899;BME280;4988;49.238;6.698;2023-03-19T14:58:48;98999.75;;;12.72;100.00
9899;BME280;4988;49.238;6.698;2023-03-19T15:01:15;99008.00;;;12.83;100.00
9899;BME280;4988;49.238;6.698;2023-03-19T15:03:41;98998.91;;;12.71;100.00